sensor_id;sensor_type;location;lat;lon;timestamp;P1;durP1;ratioP1;P2;durP2;ratioP2
53269;SDS011;39159;45.634;9.420;2023-02-15T00:01:25;32.53;;;17.75;;
53269;SDS011;39159;45.634;9.420;2023-02-15T00:03:50;35.72;;;18.10;;
53269;SDS011;39159;45.634;9.420;2023-02-15T00:06:16;35.67;;;19.08;;
53269;SDS011;39159;45.634;9.420;2023-02-15T00:08:41;35.70;;;18.45;;
53269;SDS011;39159;45.634;9.420;2023-02-15T00:11:11;41.05;;;19.58;;
53269;SDS011;39159;45.634;9.420;2023-02-15T00:13:38;34.10;;;18.63;;
53269;SDS011;39159;45.634;9.420;2023-02-15T00:16:07;34.83;;;18.15;;
53269;SDS011;39159;45.634;9.420;2023-02-15T00:18:34;38.10;;;19.38;;
53269;SDS011;39159;45.634;9.420;2023-02-15T00:21:07;39.53;;;19.58;;
53269;SDS011;39159;45.634;9.420;2023-02-15T00:23:33;37.22;;;20.27;;
53269;SDS011;39159;45.634;9.420;2023-02-15T00:26:09;37.33;;;18.55;;
53269;SDS011;39159;45.634;9.420;2023-02-15T00:28:36;34.85;;;18.85;;
53269;SDS011;39159;45.634;9.420;2023-02-15T00:31:07;35.05;;;18.85;;
53269;SDS011;39159;45.634;9.420;2023-02-15T00:33:34;38.17;;;18.05;;
53269;SDS011;39159;45.634;9.420;2023-02-15T00:36:00;32.67;;;16.70;;
53269;SDS011;39159;45.634;9.420;2023-02-15T00:38:26;30.88;;;15.10;;
53269;SDS011;39159;45.634;9.420;2023-02-15T00:40:53;27.55;;;14.60;;
53269;SDS011;39159;45.634;9.420;2023-02-15T00:43:19;31.48;;;15.88;;
53269;SDS011;39159;45.634;9.420;2023-02-15T00:45:45;32.15;;;16.10;;
53269;SDS011;39159;45.634;9.420;2023-02-15T00:48:11;32.47;;;16.35;;
53269;SDS011;39159;45.634;9.420;2023-02-15T00:50:37;33.92;;;15.43;;
53269;SDS011;39159;45.634;9.420;2023-02-15T00:53:02;30.52;;;15.57;;
53269;SDS011;39159;45.634;9.420;2023-02-15T00:55:28;31.10;;;16.60;;
53269;SDS011;39159;45.634;9.420;2023-02-15T00:57:53;30.92;;;15.20;;
53269;SDS011;39159;45.634;9.420;2023-02-15T01:00:18;29.30;;;15.48;;
53269;SDS011;39159;45.634;9.420;2023-02-15T01:02:44;31.25;;;15.73;;
53269;SDS011;39159;45.634;9.420;2023-02-15T01:05:09;30.63;;;15.48;;
53269;SDS011;39159;45.634;9.420;2023-02-15T01:07:35;27.63;;;14.95;;
53269;SDS011;39159;45.634;9.420;2023-02-15T01:10:00;27.63;;;15.07;;
53269;SDS011;39159;45.634;9.420;2023-02-15T01:12:26;35.97;;;17.75;;
53269;SDS011;39159;45.634;9.420;2023-02-15T01:14:51;35.92;;;18.40;;
53269;SDS011;39159;45.634;9.420;2023-02-15T01:17:17;32.20;;;17.42;;
53269;SDS011;39159;45.634;9.420;2023-02-15T01:19:42;35.42;;;18.20;;
53269;SDS011;39159;45.634;9.420;2023-02-15T01:22:07;33.67;;;17.95;;
53269;SDS011;39159;45.634;9.420;2023-02-15T01:24:33;36.42;;;17.70;;
53269;SDS011;39159;45.634;9.420;2023-02-15T01:26:58;30.40;;;17.45;;
53269;SDS011;39159;45.634;9.420;2023-02-15T01:29:24;32.67;;;17.35;;
53269;SDS011;39159;45.634;9.420;2023-02-15T01:31:49;35.55;;;17.02;;
53269;SDS011;39159;45.634;9.420;2023-02-15T01:34:15;36.78;;;18.15;;
53269;SDS011;39159;45.634;9.420;2023-02-15T01:36:40;32.17;;;18.48;;
53269;SDS011;39159;45.634;9.420;2023-02-15T01:39:06;37.20;;;18.85;;
53269;SDS011;39159;45.634;9.420;2023-02-15T01:41:32;38.03;;;18.38;;
53269;SDS011;39159;45.634;9.420;2023-02-15T01:43:59;36.95;;;18.38;;
53269;SDS011;39159;45.634;9.420;2023-02-15T01:46:27;37.65;;;19.40;;
53269;SDS011;39159;45.634;9.420;2023-02-15T01:48:59;33.42;;;18.30;;
53269;SDS011;39159;45.634;9.420;2023-02-15T01:51:29;37.53;;;18.00;;
53269;SDS011;39159;45.634;9.420;2023-02-15T01:54:05;36.20;;;18.10;;
53269;SDS011;39159;45.634;9.420;2023-02-15T01:56:51;30.02;;;16.33;;
53269;SDS011;39159;45.634;9.420;2023-02-15T01:59:20;33.75;;;16.35;;
53269;SDS011;39159;45.634;9.420;2023-02-15T02:01:48;29.48;;;15.82;;
53269;SDS011;39159;45.634;9.420;2023-02-15T02:06:56;30.13;;;15.82;;
53269;SDS011;39159;45.634;9.420;2023-02-15T02:09:22;31.02;;;15.95;;
53269;SDS011;39159;45.634;9.420;2023-02-15T02:11:48;30.00;;;15.98;;
53269;SDS011;39159;45.634;9.420;2023-02-15T02:14:14;33.35;;;17.05;;
53269;SDS011;39159;45.634;9.420;2023-02-15T02:17:15;34.30;;;15.85;;
53269;SDS011;39159;45.634;9.420;2023-02-15T02:33:52;37.92;;;15.27;;
53269;SDS011;39159;45.634;9.420;2023-02-15T02:36:38;30.20;;;16.38;;
53269;SDS011;39159;45.634;9.420;2023-02-15T02:39:09;31.40;;;15.48;;
53269;SDS011;39159;45.634;9.420;2023-02-15T02:44:31;30.20;;;14.88;;
53269;SDS011;39159;45.634;9.420;2023-02-15T02:49:58;31.45;;;15.43;;
53269;SDS011;39159;45.634;9.420;2023-02-15T02:52:44;35.92;;;15.80;;
53269;SDS011;39159;45.634;9.420;2023-02-15T02:57:55;29.17;;;14.48;;
53269;SDS011;39159;45.634;9.420;2023-02-15T03:00:27;30.23;;;14.95;;
53269;SDS011;39159;45.634;9.420;2023-02-15T03:03:01;29.20;;;15.18;;
53269;SDS011;39159;45.634;9.420;2023-02-15T03:05:31;28.27;;;14.85;;
53269;SDS011;39159;45.634;9.420;2023-02-15T03:08:02;23.08;;;14.25;;
53269;SDS011;39159;45.634;9.420;2023-02-15T03:10:31;30.85;;;14.80;;
53269;SDS011;39159;45.634;9.420;2023-02-15T03:12:59;26.52;;;14.88;;
53269;SDS011;39159;45.634;9.420;2023-02-15T03:15:26;30.08;;;15.70;;
53269;SDS011;39159;45.634;9.420;2023-02-15T03:18:20;27.08;;;14.30;;
53269;SDS011;39159;45.634;9.420;2023-02-15T03:20:50;26.00;;;13.23;;
53269;SDS011;39159;45.634;9.420;2023-02-15T03:23:18;26.13;;;13.93;;
53269;SDS011;39159;45.634;9.420;2023-02-15T03:25:56;22.25;;;12.80;;
53269;SDS011;39159;45.634;9.420;2023-02-15T03:28:27;24.38;;;12.70;;
53269;SDS011;39159;45.634;9.420;2023-02-15T03:30:57;26.40;;;13.25;;
53269;SDS011;39159;45.634;9.420;2023-02-15T03:33:27;27.25;;;14.00;;
53269;SDS011;39159;45.634;9.420;2023-02-15T03:39:10;29.10;;;13.38;;
53269;SDS011;39159;45.634;9.420;2023-02-15T03:41:48;26.73;;;12.75;;
53269;SDS011;39159;45.634;9.420;2023-02-15T03:44:30;24.60;;;12.65;;
53269;SDS011;39159;45.634;9.420;2023-02-15T03:47:08;31.70;;;14.45;;
53269;SDS011;39159;45.634;9.420;2023-02-15T03:49:45;26.13;;;13.30;;
53269;SDS011;39159;45.634;9.420;2023-02-15T03:52:18;25.48;;;13.10;;
53269;SDS011;39159;45.634;9.420;2023-02-15T03:54:46;25.45;;;12.95;;
53269;SDS011;39159;45.634;9.420;2023-02-15T03:59:59;26.58;;;12.80;;
53269;SDS011;39159;45.634;9.420;2023-02-15T04:03:07;25.40;;;12.05;;
53269;SDS011;39159;45.634;9.420;2023-02-15T04:05:48;25.75;;;11.93;;
53269;SDS011;39159;45.634;9.420;2023-02-15T04:08:14;24.25;;;11.88;;
53269;SDS011;39159;45.634;9.420;2023-02-15T04:10:39;24.05;;;12.13;;
53269;SDS011;39159;45.634;9.420;2023-02-15T04:13:24;25.30;;;11.60;;
53269;SDS011;39159;45.634;9.420;2023-02-15T04:15:55;18.90;;;9.90;;
53269;SDS011;39159;45.634;9.420;2023-02-15T04:21:17;16.23;;;8.63;;
53269;SDS011;39159;45.634;9.420;2023-02-15T04:24:02;16.95;;;8.70;;
53269;SDS011;39159;45.634;9.420;2023-02-15T04:26:45;16.80;;;8.88;;
53269;SDS011;39159;45.634;9.420;2023-02-15T04:29:12;17.05;;;9.18;;
53269;SDS011;39159;45.634;9.420;2023-02-15T04:31:39;15.10;;;8.32;;
53269;SDS011;39159;45.634;9.420;2023-02-15T04:34:04;15.57;;;8.35;;
53269;SDS011;39159;45.634;9.420;2023-02-15T04:36:30;18.15;;;8.80;;
53269;SDS011;39159;45.634;9.420;2023-02-15T04:38:55;15.73;;;8.77;;
53269;SDS011;39159;45.634;9.420;2023-02-15T04:41:20;16.27;;;8.80;;
53269;SDS011;39159;45.634;9.420;2023-02-15T04:43:46;19.88;;;9.35;;
53269;SDS011;39159;45.634;9.420;2023-02-15T04:46:11;19.35;;;8.68;;
53269;SDS011;39159;45.634;9.420;2023-02-15T04:48:37;15.73;;;8.75;;
53269;SDS011;39159;45.634;9.420;2023-02-15T04:51:06;15.85;;;8.55;;
53269;SDS011;39159;45.634;9.420;2023-02-15T04:53:32;16.73;;;8.52;;
53269;SDS011;39159;45.634;9.420;2023-02-15T04:55:58;18.63;;;9.68;;
53269;SDS011;39159;45.634;9.420;2023-02-15T04:58:24;18.65;;;9.60;;
53269;SDS011;39159;45.634;9.420;2023-02-15T05:00:49;20.42;;;9.40;;
53269;SDS011;39159;45.634;9.420;2023-02-15T05:03:15;15.20;;;8.45;;
53269;SDS011;39159;45.634;9.420;2023-02-15T05:05:40;13.77;;;8.40;;
53269;SDS011;39159;45.634;9.420;2023-02-15T05:08:06;15.10;;;8.55;;
53269;SDS011;39159;45.634;9.420;2023-02-15T05:10:31;14.48;;;8.25;;
53269;SDS011;39159;45.634;9.420;2023-02-15T05:12:56;14.30;;;8.45;;
53269;SDS011;39159;45.634;9.420;2023-02-15T05:15:22;17.00;;;8.13;;
53269;SDS011;39159;45.634;9.420;2023-02-15T05:17:47;13.23;;;8.10;;
53269;SDS011;39159;45.634;9.420;2023-02-15T05:20:13;14.75;;;8.50;;
53269;SDS011;39159;45.634;9.420;2023-02-15T05:22:38;13.80;;;7.78;;
53269;SDS011;39159;45.634;9.420;2023-02-15T05:25:05;16.48;;;8.50;;
53269;SDS011;39159;45.634;9.420;2023-02-15T05:27:49;17.83;;;8.05;;
53269;SDS011;39159;45.634;9.420;2023-02-15T05:30:33;14.43;;;8.63;;
53269;SDS011;39159;45.634;9.420;2023-02-15T05:32:59;17.23;;;8.30;;
53269;SDS011;39159;45.634;9.420;2023-02-15T05:35:24;16.98;;;8.98;;
53269;SDS011;39159;45.634;9.420;2023-02-15T05:37:49;14.48;;;8.38;;
53269;SDS011;39159;45.634;9.420;2023-02-15T05:40:15;14.68;;;8.65;;
53269;SDS011;39159;45.634;9.420;2023-02-15T05:42:40;16.35;;;8.57;;
53269;SDS011;39159;45.634;9.420;2023-02-15T05:45:06;15.95;;;9.20;;
53269;SDS011;39159;45.634;9.420;2023-02-15T05:47:32;15.90;;;8.45;;
53269;SDS011;39159;45.634;9.420;2023-02-15T05:49:57;14.00;;;7.95;;
53269;SDS011;39159;45.634;9.420;2023-02-15T05:52:22;14.68;;;8.23;;
53269;SDS011;39159;45.634;9.420;2023-02-15T05:54:48;15.32;;;8.40;;
53269;SDS011;39159;45.634;9.420;2023-02-15T05:57:13;14.27;;;8.38;;
53269;SDS011;39159;45.634;9.420;2023-02-15T05:59:39;17.25;;;8.85;;
53269;SDS011;39159;45.634;9.420;2023-02-15T06:02:04;16.25;;;9.32;;
53269;SDS011;39159;45.634;9.420;2023-02-15T06:04:31;17.15;;;9.32;;
53269;SDS011;39159;45.634;9.420;2023-02-15T06:06:56;20.75;;;9.35;;
53269;SDS011;39159;45.634;9.420;2023-02-15T06:09:22;22.48;;;9.27;;
53269;SDS011;39159;45.634;9.420;2023-02-15T06:11:47;15.35;;;8.50;;
53269;SDS011;39159;45.634;9.420;2023-02-15T06:14:13;22.23;;;9.35;;
53269;SDS011;39159;45.634;9.420;2023-02-15T06:16:38;19.88;;;8.75;;
53269;SDS011;39159;45.634;9.420;2023-02-15T06:19:03;16.20;;;9.15;;
53269;SDS011;39159;45.634;9.420;2023-02-15T06:21:29;15.35;;;9.15;;
53269;SDS011;39159;45.634;9.420;2023-02-15T06:23:55;19.85;;;9.77;;
53269;SDS011;39159;45.634;9.420;2023-02-15T06:26:20;14.98;;;8.63;;
53269;SDS011;39159;45.634;9.420;2023-02-15T06:28:46;14.60;;;8.20;;
53269;SDS011;39159;45.634;9.420;2023-02-15T06:31:11;16.70;;;8.88;;
53269;SDS011;39159;45.634;9.420;2023-02-15T06:33:37;19.90;;;8.70;;
53269;SDS011;39159;45.634;9.420;2023-02-15T06:36:03;13.43;;;8.02;;
53269;SDS011;39159;45.634;9.420;2023-02-15T06:38:29;16.50;;;7.80;;
53269;SDS011;39159;45.634;9.420;2023-02-15T06:40:55;15.13;;;8.43;;
53269;SDS011;39159;45.634;9.420;2023-02-15T06:43:20;14.35;;;7.78;;
53269;SDS011;39159;45.634;9.420;2023-02-15T06:45:45;13.05;;;7.55;;
53269;SDS011;39159;45.634;9.420;2023-02-15T06:48:11;12.23;;;7.32;;
53269;SDS011;39159;45.634;9.420;2023-02-15T06:50:36;14.05;;;7.65;;
53269;SDS011;39159;45.634;9.420;2023-02-15T06:53:02;16.02;;;7.70;;
53269;SDS011;39159;45.634;9.420;2023-02-15T06:55:28;13.40;;;7.43;;
53269;SDS011;39159;45.634;9.420;2023-02-15T06:57:53;12.25;;;7.38;;
53269;SDS011;39159;45.634;9.420;2023-02-15T07:00:18;12.82;;;7.70;;
53269;SDS011;39159;45.634;9.420;2023-02-15T07:02:44;16.70;;;8.07;;
53269;SDS011;39159;45.634;9.420;2023-02-15T07:05:10;15.88;;;7.40;;
53269;SDS011;39159;45.634;9.420;2023-02-15T07:07:35;13.85;;;7.28;;
53269;SDS011;39159;45.634;9.420;2023-02-15T07:10:01;14.25;;;6.78;;
53269;SDS011;39159;45.634;9.420;2023-02-15T07:12:27;10.82;;;6.60;;
53269;SDS011;39159;45.634;9.420;2023-02-15T07:15:15;13.45;;;6.82;;
53269;SDS011;39159;45.634;9.420;2023-02-15T07:17:43;13.05;;;7.90;;
53269;SDS011;39159;45.634;9.420;2023-02-15T07:20:10;13.05;;;7.07;;
53269;SDS011;39159;45.634;9.420;2023-02-15T07:22:42;13.23;;;7.15;;
53269;SDS011;39159;45.634;9.420;2023-02-15T07:25:09;15.02;;;7.32;;
53269;SDS011;39159;45.634;9.420;2023-02-15T07:27:35;15.23;;;7.38;;
53269;SDS011;39159;45.634;9.420;2023-02-15T07:30:01;12.63;;;7.18;;
53269;SDS011;39159;45.634;9.420;2023-02-15T07:32:27;16.45;;;7.65;;
53269;SDS011;39159;45.634;9.420;2023-02-15T07:34:54;14.63;;;7.35;;
53269;SDS011;39159;45.634;9.420;2023-02-15T07:37:19;16.67;;;7.82;;
53269;SDS011;39159;45.634;9.420;2023-02-15T07:39:45;18.25;;;7.43;;
53269;SDS011;39159;45.634;9.420;2023-02-15T07:42:10;16.98;;;7.60;;
53269;SDS011;39159;45.634;9.420;2023-02-15T07:44:35;16.00;;;7.97;;
53269;SDS011;39159;45.634;9.420;2023-02-15T07:47:01;14.93;;;7.40;;
53269;SDS011;39159;45.634;9.420;2023-02-15T07:49:26;14.85;;;7.53;;
53269;SDS011;39159;45.634;9.420;2023-02-15T07:51:52;13.15;;;7.30;;
53269;SDS011;39159;45.634;9.420;2023-02-15T07:54:17;14.38;;;7.60;;
53269;SDS011;39159;45.634;9.420;2023-02-15T07:56:43;19.08;;;7.82;;
53269;SDS011;39159;45.634;9.420;2023-02-15T07:59:08;15.25;;;8.70;;
53269;SDS011;39159;45.634;9.420;2023-02-15T08:01:35;16.60;;;8.63;;
53269;SDS011;39159;45.634;9.420;2023-02-15T08:04:02;18.08;;;7.60;;
53269;SDS011;39159;45.634;9.420;2023-02-15T08:06:30;14.57;;;8.07;;
53269;SDS011;39159;45.634;9.420;2023-02-15T08:08:57;16.48;;;8.15;;
53269;SDS011;39159;45.634;9.420;2023-02-15T08:11:24;16.65;;;8.18;;
53269;SDS011;39159;45.634;9.420;2023-02-15T08:13:52;15.65;;;8.85;;
53269;SDS011;39159;45.634;9.420;2023-02-15T08:16:22;15.25;;;8.30;;
53269;SDS011;39159;45.634;9.420;2023-02-15T08:18:48;16.23;;;8.50;;
53269;SDS011;39159;45.634;9.420;2023-02-15T08:21:14;16.83;;;8.32;;
53269;SDS011;39159;45.634;9.420;2023-02-15T08:23:39;18.60;;;8.57;;
53269;SDS011;39159;45.634;9.420;2023-02-15T08:26:04;22.13;;;8.40;;
53269;SDS011;39159;45.634;9.420;2023-02-15T08:28:30;14.15;;;8.45;;
53269;SDS011;39159;45.634;9.420;2023-02-15T08:31:03;19.25;;;9.30;;
53269;SDS011;39159;45.634;9.420;2023-02-15T08:33:32;19.95;;;8.68;;
53269;SDS011;39159;45.634;9.420;2023-02-15T08:36:02;15.25;;;9.15;;
53269;SDS011;39159;45.634;9.420;2023-02-15T08:38:39;17.60;;;9.55;;
53269;SDS011;39159;45.634;9.420;2023-02-15T08:41:09;16.23;;;9.90;;
53269;SDS011;39159;45.634;9.420;2023-02-15T08:43:36;23.27;;;10.52;;
53269;SDS011;39159;45.634;9.420;2023-02-15T08:46:02;24.50;;;10.02;;
53269;SDS011;39159;45.634;9.420;2023-02-15T08:48:27;18.38;;;9.52;;
53269;SDS011;39159;45.634;9.420;2023-02-15T08:50:53;17.88;;;10.00;;
53269;SDS011;39159;45.634;9.420;2023-02-15T08:53:18;17.85;;;9.40;;
53269;SDS011;39159;45.634;9.420;2023-02-15T08:55:46;20.40;;;10.73;;
53269;SDS011;39159;45.634;9.420;2023-02-15T08:58:12;20.95;;;11.43;;
53269;SDS011;39159;45.634;9.420;2023-02-15T09:00:38;22.20;;;11.82;;
53269;SDS011;39159;45.634;9.420;2023-02-15T09:03:03;21.48;;;11.90;;
53269;SDS011;39159;45.634;9.420;2023-02-15T09:05:28;23.58;;;12.35;;
53269;SDS011;39159;45.634;9.420;2023-02-15T09:07:54;24.88;;;13.07;;
53269;SDS011;39159;45.634;9.420;2023-02-15T09:10:19;25.08;;;13.73;;
53269;SDS011;39159;45.634;9.420;2023-02-15T09:12:45;24.83;;;13.52;;
53269;SDS011;39159;45.634;9.420;2023-02-15T09:15:10;25.45;;;13.75;;
53269;SDS011;39159;45.634;9.420;2023-02-15T09:17:36;26.02;;;13.70;;
53269;SDS011;39159;45.634;9.420;2023-02-15T09:20:01;28.58;;;14.63;;
53269;SDS011;39159;45.634;9.420;2023-02-15T09:22:27;25.27;;;14.68;;
53269;SDS011;39159;45.634;9.420;2023-02-15T09:24:55;26.30;;;13.90;;
53269;SDS011;39159;45.634;9.420;2023-02-15T09:27:20;31.08;;;13.93;;
53269;SDS011;39159;45.634;9.420;2023-02-15T09:29:45;27.52;;;14.77;;
53269;SDS011;39159;45.634;9.420;2023-02-15T09:32:13;24.65;;;14.65;;
53269;SDS011;39159;45.634;9.420;2023-02-15T09:34:39;28.60;;;14.25;;
53269;SDS011;39159;45.634;9.420;2023-02-15T09:37:05;29.80;;;15.38;;
53269;SDS011;39159;45.634;9.420;2023-02-15T09:39:31;33.22;;;16.35;;
53269;SDS011;39159;45.634;9.420;2023-02-15T09:42:16;26.77;;;16.05;;
53269;SDS011;39159;45.634;9.420;2023-02-15T09:45:26;30.67;;;16.92;;
53269;SDS011;39159;45.634;9.420;2023-02-15T09:50:59;32.85;;;17.95;;
53269;SDS011;39159;45.634;9.420;2023-02-15T09:56:25;40.30;;;18.70;;
53269;SDS011;39159;45.634;9.420;2023-02-15T10:04:26;36.35;;;19.45;;
53269;SDS011;39159;45.634;9.420;2023-02-15T10:13:27;36.00;;;19.67;;
53269;SDS011;39159;45.634;9.420;2023-02-15T10:18:42;39.70;;;20.98;;
53269;SDS011;39159;45.634;9.420;2023-02-15T10:27:14;42.17;;;21.98;;
53269;SDS011;39159;45.634;9.420;2023-02-15T10:30:08;48.58;;;23.52;;
53269;SDS011;39159;45.634;9.420;2023-02-15T10:33:22;47.33;;;24.80;;
53269;SDS011;39159;45.634;9.420;2023-02-15T10:38:01;49.10;;;25.48;;
53269;SDS011;39159;45.634;9.420;2023-02-15T10:46:41;49.53;;;25.77;;
53269;SDS011;39159;45.634;9.420;2023-02-15T10:54:56;54.92;;;28.33;;
53269;SDS011;39159;45.634;9.420;2023-02-15T11:00:23;62.53;;;31.42;;
53269;SDS011;39159;45.634;9.420;2023-02-15T11:08:24;63.45;;;31.67;;
53269;SDS011;39159;45.634;9.420;2023-02-15T11:10:57;61.58;;;31.88;;
53269;SDS011;39159;45.634;9.420;2023-02-15T11:13:28;58.08;;;30.58;;
53269;SDS011;39159;45.634;9.420;2023-02-15T11:16:01;61.38;;;32.08;;
53269;SDS011;39159;45.634;9.420;2023-02-15T11:18:34;61.13;;;33.10;;
53269;SDS011;39159;45.634;9.420;2023-02-15T11:23:49;59.33;;;31.45;;
53269;SDS011;39159;45.634;9.420;2023-02-15T11:26:22;62.13;;;31.58;;
53269;SDS011;39159;45.634;9.420;2023-02-15T11:29:01;63.22;;;31.85;;
53269;SDS011;39159;45.634;9.420;2023-02-15T11:31:41;57.38;;;30.13;;
53269;SDS011;39159;45.634;9.420;2023-02-15T11:34:12;60.42;;;31.00;;
53269;SDS011;39159;45.634;9.420;2023-02-15T11:37:06;61.03;;;30.92;;
53269;SDS011;39159;45.634;9.420;2023-02-15T11:42:13;61.03;;;31.02;;
53269;SDS011;39159;45.634;9.420;2023-02-15T11:44:47;59.13;;;31.35;;
53269;SDS011;39159;45.634;9.420;2023-02-15T11:50:13;52.80;;;29.47;;
53269;SDS011;39159;45.634;9.420;2023-02-15T11:52:42;60.97;;;31.33;;
53269;SDS011;39159;45.634;9.420;2023-02-15T11:55:15;61.17;;;29.90;;
53269;SDS011;39159;45.634;9.420;2023-02-15T11:57:47;60.03;;;29.52;;
53269;SDS011;39159;45.634;9.420;2023-02-15T12:02:53;59.88;;;30.17;;
53269;SDS011;39159;45.634;9.420;2023-02-15T12:05:21;60.60;;;29.95;;
53269;SDS011;39159;45.634;9.420;2023-02-15T12:07:52;53.05;;;28.13;;
53269;SDS011;39159;45.634;9.420;2023-02-15T12:10:32;54.88;;;28.48;;
53269;SDS011;39159;45.634;9.420;2023-02-15T12:13:13;57.17;;;29.63;;
53269;SDS011;39159;45.634;9.420;2023-02-15T12:15:47;57.83;;;30.08;;
53269;SDS011;39159;45.634;9.420;2023-02-15T12:18:37;60.83;;;30.77;;
53269;SDS011;39159;45.634;9.420;2023-02-15T12:21:10;55.75;;;28.05;;
53269;SDS011;39159;45.634;9.420;2023-02-15T12:24:21;58.65;;;30.08;;
53269;SDS011;39159;45.634;9.420;2023-02-15T12:26:45;61.08;;;28.70;;
53269;SDS011;39159;45.634;9.420;2023-02-15T12:29:41;54.90;;;28.80;;
53269;SDS011;39159;45.634;9.420;2023-02-15T12:32:10;55.92;;;28.70;;
53269;SDS011;39159;45.634;9.420;2023-02-15T12:34:43;54.65;;;29.73;;
53269;SDS011;39159;45.634;9.420;2023-02-15T12:37:24;54.70;;;28.33;;
53269;SDS011;39159;45.634;9.420;2023-02-15T12:39:56;52.25;;;28.15;;
53269;SDS011;39159;45.634;9.420;2023-02-15T12:42:24;55.25;;;28.10;;
53269;SDS011;39159;45.634;9.420;2023-02-15T12:44:55;52.13;;;27.15;;
53269;SDS011;39159;45.634;9.420;2023-02-15T12:47:24;56.03;;;28.50;;
53269;SDS011;39159;45.634;9.420;2023-02-15T12:52:41;52.10;;;26.73;;
53269;SDS011;39159;45.634;9.420;2023-02-15T12:55:17;52.92;;;27.63;;
53269;SDS011;39159;45.634;9.420;2023-02-15T13:00:47;55.72;;;28.58;;
53269;SDS011;39159;45.634;9.420;2023-02-15T13:03:26;50.78;;;26.45;;
53269;SDS011;39159;45.634;9.420;2023-02-15T13:05:51;57.72;;;28.25;;
53269;SDS011;39159;45.634;9.420;2023-02-15T13:08:20;58.03;;;30.33;;
53269;SDS011;39159;45.634;9.420;2023-02-15T13:10:52;52.35;;;28.52;;
53269;SDS011;39159;45.634;9.420;2023-02-15T13:13:25;56.70;;;27.15;;
53269;SDS011;39159;45.634;9.420;2023-02-15T13:15:53;52.95;;;25.38;;
53269;SDS011;39159;45.634;9.420;2023-02-15T13:18:29;52.88;;;28.23;;
53269;SDS011;39159;45.634;9.420;2023-02-15T13:20:59;56.88;;;27.75;;
53269;SDS011;39159;45.634;9.420;2023-02-15T13:23:30;52.60;;;27.48;;
53269;SDS011;39159;45.634;9.420;2023-02-15T13:25:57;59.75;;;33.08;;
53269;SDS011;39159;45.634;9.420;2023-02-15T13:28:41;56.03;;;29.88;;
53269;SDS011;39159;45.634;9.420;2023-02-15T13:31:12;53.55;;;29.13;;
53269;SDS011;39159;45.634;9.420;2023-02-15T13:33:41;51.22;;;26.83;;
53269;SDS011;39159;45.634;9.420;2023-02-15T13:39:18;56.88;;;29.73;;
53269;SDS011;39159;45.634;9.420;2023-02-15T13:41:53;49.35;;;28.08;;
53269;SDS011;39159;45.634;9.420;2023-02-15T13:47:27;53.35;;;28.42;;
53269;SDS011;39159;45.634;9.420;2023-02-15T13:55:43;60.33;;;30.15;;
53269;SDS011;39159;45.634;9.420;2023-02-15T14:09:56;66.97;;;32.20;;
53269;SDS011;39159;45.634;9.420;2023-02-15T14:18:25;61.63;;;31.23;;
53269;SDS011;39159;45.634;9.420;2023-02-15T14:21:15;57.53;;;30.35;;
53269;SDS011;39159;45.634;9.420;2023-02-15T14:26:49;56.30;;;29.42;;
53269;SDS011;39159;45.634;9.420;2023-02-15T14:32:09;62.42;;;31.02;;
53269;SDS011;39159;45.634;9.420;2023-02-15T14:34:59;56.33;;;27.75;;
53269;SDS011;39159;45.634;9.420;2023-02-15T14:48:51;76.30;;;39.80;;
53269;SDS011;39159;45.634;9.420;2023-02-15T14:54:11;77.40;;;38.80;;
53269;SDS011;39159;45.634;9.420;2023-02-15T14:59:26;76.30;;;38.05;;
53269;SDS011;39159;45.634;9.420;2023-02-15T15:01:56;77.40;;;37.40;;
53269;SDS011;39159;45.634;9.420;2023-02-15T15:10:03;74.35;;;35.53;;
53269;SDS011;39159;45.634;9.420;2023-02-15T15:14:57;75.45;;;37.90;;
53269;SDS011;39159;45.634;9.420;2023-02-15T15:22:50;76.45;;;36.65;;
53269;SDS011;39159;45.634;9.420;2023-02-15T15:28:07;74.25;;;37.00;;
53269;SDS011;39159;45.634;9.420;2023-02-15T15:33:11;86.13;;;39.92;;
53269;SDS011;39159;45.634;9.420;2023-02-15T15:41:43;86.68;;;41.42;;
53269;SDS011;39159;45.634;9.420;2023-02-15T15:47:13;98.57;;;40.38;;
53269;SDS011;39159;45.634;9.420;2023-02-15T15:49:57;90.80;;;41.85;;
53269;SDS011;39159;45.634;9.420;2023-02-15T15:52:24;90.32;;;42.20;;
53269;SDS011;39159;45.634;9.420;2023-02-15T15:54:58;94.47;;;43.03;;
53269;SDS011;39159;45.634;9.420;2023-02-15T15:57:39;86.78;;;41.08;;
53269;SDS011;39159;45.634;9.420;2023-02-15T16:00:29;90.65;;;41.90;;
53269;SDS011;39159;45.634;9.420;2023-02-15T16:02:56;96.15;;;41.95;;
53269;SDS011;39159;45.634;9.420;2023-02-15T16:05:21;94.85;;;41.35;;
53269;SDS011;39159;45.634;9.420;2023-02-15T16:07:48;87.85;;;40.40;;
53269;SDS011;39159;45.634;9.420;2023-02-15T16:10:24;78.97;;;38.28;;
53269;SDS011;39159;45.634;9.420;2023-02-15T16:12:51;99.10;;;42.42;;
53269;SDS011;39159;45.634;9.420;2023-02-15T16:15:25;93.82;;;42.58;;
53269;SDS011;39159;45.634;9.420;2023-02-15T16:18:15;97.47;;;40.92;;
53269;SDS011;39159;45.634;9.420;2023-02-15T16:20:42;93.00;;;42.90;;
53269;SDS011;39159;45.634;9.420;2023-02-15T16:26:17;88.53;;;40.97;;
53269;SDS011;39159;45.634;9.420;2023-02-15T16:28:51;88.05;;;40.40;;
53269;SDS011;39159;45.634;9.420;2023-02-15T16:31:18;92.55;;;40.75;;
53269;SDS011;39159;45.634;9.420;2023-02-15T16:33:44;86.80;;;40.10;;
53269;SDS011;39159;45.634;9.420;2023-02-15T16:36:11;87.05;;;39.67;;
53269;SDS011;39159;45.634;9.420;2023-02-15T16:41:14;84.80;;;39.00;;
53269;SDS011;39159;45.634;9.420;2023-02-15T16:43:43;80.43;;;38.65;;
53269;SDS011;39159;45.634;9.420;2023-02-15T16:46:12;86.88;;;39.33;;
53269;SDS011;39159;45.634;9.420;2023-02-15T16:49:02;87.72;;;38.53;;
53269;SDS011;39159;45.634;9.420;2023-02-15T16:51:33;81.45;;;36.95;;
53269;SDS011;39159;45.634;9.420;2023-02-15T16:54:04;93.32;;;40.70;;
53269;SDS011;39159;45.634;9.420;2023-02-15T16:56:32;89.30;;;39.78;;
53269;SDS011;39159;45.634;9.420;2023-02-15T16:58:59;84.78;;;39.70;;
53269;SDS011;39159;45.634;9.420;2023-02-15T17:01:29;85.97;;;40.10;;
53269;SDS011;39159;45.634;9.420;2023-02-15T17:04:13;87.88;;;38.47;;
53269;SDS011;39159;45.634;9.420;2023-02-15T17:07:13;100.13;;;40.75;;
53269;SDS011;39159;45.634;9.420;2023-02-15T17:09:54;97.60;;;40.40;;
53269;SDS011;39159;45.634;9.420;2023-02-15T17:15:26;93.70;;;40.28;;
53269;SDS011;39159;45.634;9.420;2023-02-15T17:18:01;82.43;;;38.65;;
53269;SDS011;39159;45.634;9.420;2023-02-15T17:20:30;84.07;;;40.72;;
53269;SDS011;39159;45.634;9.420;2023-02-15T17:22:56;89.95;;;40.13;;
53269;SDS011;39159;45.634;9.420;2023-02-15T17:25:30;84.32;;;38.25;;
53269;SDS011;39159;45.634;9.420;2023-02-15T17:27:59;93.72;;;40.97;;
53269;SDS011;39159;45.634;9.420;2023-02-15T17:30:29;92.10;;;40.40;;
53269;SDS011;39159;45.634;9.420;2023-02-15T17:32:58;91.53;;;41.63;;
53269;SDS011;39159;45.634;9.420;2023-02-15T17:35:26;93.75;;;40.83;;
53269;SDS011;39159;45.634;9.420;2023-02-15T17:40:31;92.70;;;40.90;;
53269;SDS011;39159;45.634;9.420;2023-02-15T17:42:58;86.82;;;39.22;;
53269;SDS011;39159;45.634;9.420;2023-02-15T17:45:31;95.65;;;42.35;;
53269;SDS011;39159;45.634;9.420;2023-02-15T17:48:00;90.47;;;41.20;;
53269;SDS011;39159;45.634;9.420;2023-02-15T17:50:28;92.93;;;41.88;;
53269;SDS011;39159;45.634;9.420;2023-02-15T17:52:54;89.03;;;39.50;;
53269;SDS011;39159;45.634;9.420;2023-02-15T17:55:22;91.63;;;39.88;;